sensor_id;sensor_type;location;lat;lon;timestamp;temperature;humidity
18882;DHT22;9573;50.948;11.600;2022-10-16T00:01:06;16.00;99.90
18882;DHT22;9573;50.948;11.600;2022-10-16T00:03:35;15.80;99.90
18882;DHT22;9573;50.948;11.600;2022-10-16T00:06:03;15.70;99.90
18882;DHT22;9573;50.948;11.600;2022-10-16T00:08:30;15.60;99.90
18882;DHT22;9573;50.948;11.600;2022-10-16T00:11:02;15.50;99.90
18882;DHT22;9573;50.948;11.600;2022-10-16T00:13:31;15.50;99.90
18882;DHT22;9573;50.948;11.600;2022-10-16T00:16:00;15.50;99.90
18882;DHT22;9573;50.948;11.600;2022-10-16T00:18:27;15.50;99.90
18882;DHT22;9573;50.948;11.600;2022-10-16T00:21:02;15.60;99.90
18882;DHT22;9573;50.948;11.600;2022-10-16T00:23:29;15.60;99.90
18882;DHT22;9573;50.948;11.600;2022-10-16T00:25:58;15.70;99.90
18882;DHT22;9573;50.948;11.600;2022-10-16T00:28:27;15.70;99.90
18882;DHT22;9573;50.948;11.600;2022-10-16T00:30:54;15.80;99.90
18882;DHT22;9573;50.948;11.600;2022-10-16T00:33:22;15.70;99.90
18882;DHT22;9573;50.948;11.600;2022-10-16T00:35:49;15.60;99.90
18882;DHT22;9573;50.948;11.600;2022-10-16T00:38:18;15.50;99.90
18882;DHT22;9573;50.948;11.600;2022-10-16T00:40:45;15.40;99.90
18882;DHT22;9573;50.948;11.600;2022-10-16T00:43:14;15.30;99.90
18882;DHT22;9573;50.948;11.600;2022-10-16T00:46:00;15.20;99.90
18882;DHT22;9573;50.948;11.600;2022-10-16T00:48:29;15.10;99.90
18882;DHT22;9573;50.948;11.600;2022-10-16T00:50:57;15.00;99.90
18882;DHT22;9573;50.948;11.600;2022-10-16T00:53:27;14.90;99.90
18882;DHT22;9573;50.948;11.600;2022-10-16T00:55:54;14.90;99.90
18882;DHT22;9573;50.948;11.600;2022-10-16T00:58:22;14.80;99.90
18882;DHT22;9573;50.948;11.600;2022-10-16T01:00:49;14.80;99.90
18882;DHT22;9573;50.948;11.600;2022-10-16T01:03:27;14.70;99.90
18882;DHT22;9573;50.948;11.600;2022-10-16T01:06:06;14.70;99.90
18882;DHT22;9573;50.948;11.600;2022-10-16T01:08:49;14.60;99.90
18882;DHT22;9573;50.948;11.600;2022-10-16T01:11:27;14.60;99.90
18882;DHT22;9573;50.948;11.600;2022-10-16T01:14:05;14.60;99.90
18882;DHT22;9573;50.948;11.600;2022-10-16T01:16:39;14.60;99.90
18882;DHT22;9573;50.948;11.600;2022-10-16T01:19:15;14.50;99.90
18882;DHT22;9573;50.948;11.600;2022-10-16T01:21:47;14.50;99.90
18882;DHT22;9573;50.948;11.600;2022-10-16T01:24:23;14.50;99.90
18882;DHT22;9573;50.948;11.600;2022-10-16T01:27:15;14.50;99.90
18882;DHT22;9573;50.948;11.600;2022-10-16T01:29:52;14.50;99.90
18882;DHT22;9573;50.948;11.600;2022-10-16T01:32:27;14.40;99.90
18882;DHT22;9573;50.948;11.600;2022-10-16T01:34:59;14.40;99.90
18882;DHT22;9573;50.948;11.600;2022-10-16T01:37:35;14.40;99.90
18882;DHT22;9573;50.948;11.600;2022-10-16T01:40:09;14.40;99.90
18882;DHT22;9573;50.948;11.600;2022-10-16T01:42:41;14.30;99.90
18882;DHT22;9573;50.948;11.600;2022-10-16T01:45:12;14.30;99.90
18882;DHT22;9573;50.948;11.600;2022-10-16T01:47:40;14.30;99.90
18882;DHT22;9573;50.948;11.600;2022-10-16T01:50:09;14.20;99.90
18882;DHT22;9573;50.948;11.600;2022-10-16T01:52:40;14.20;99.90
18882;DHT22;9573;50.948;11.600;2022-10-16T01:55:12;14.20;99.90
18882;DHT22;9573;50.948;11.600;2022-10-16T01:57:46;14.20;99.90
18882;DHT22;9573;50.948;11.600;2022-10-16T02:00:16;14.20;99.90
18882;DHT22;9573;50.948;11.600;2022-10-16T02:02:47;14.10;99.90
18882;DHT22;9573;50.948;11.600;2022-10-16T02:05:19;14.10;99.90
18882;DHT22;9573;50.948;11.600;2022-10-16T02:07:48;14.10;99.90
18882;DHT22;9573;50.948;11.600;2022-10-16T02:10:16;14.10;99.90
18882;DHT22;9573;50.948;11.600;2022-10-16T02:12:49;14.10;99.90
18882;DHT22;9573;50.948;11.600;2022-10-16T02:15:17;14.10;99.90
18882;DHT22;9573;50.948;11.600;2022-10-16T02:17:44;14.20;99.90
18882;DHT22;9573;50.948;11.600;2022-10-16T02:20:12;14.30;99.90
18882;DHT22;9573;50.948;11.600;2022-10-16T02:22:41;14.20;99.90
18882;DHT22;9573;50.948;11.600;2022-10-16T02:25:12;14.30;99.90
18882;DHT22;9573;50.948;11.600;2022-10-16T02:27:50;14.20;99.90
18882;DHT22;9573;50.948;11.600;2022-10-16T02:30:26;14.30;99.90
18882;DHT22;9573;50.948;11.600;2022-10-16T02:32:56;14.20;99.90
18882;DHT22;9573;50.948;11.600;2022-10-16T02:35:25;14.10;99.90
18882;DHT22;9573;50.948;11.600;2022-10-16T02:37:54;14.10;99.90
18882;DHT22;9573;50.948;11.600;2022-10-16T02:40:22;14.10;99.90
18882;DHT22;9573;50.948;11.600;2022-10-16T02:42:52;14.00;99.90
18882;DHT22;9573;50.948;11.600;2022-10-16T02:45:20;14.00;99.90
18882;DHT22;9573;50.948;11.600;2022-10-16T02:47:48;13.90;99.90
18882;DHT22;9573;50.948;11.600;2022-10-16T02:50:15;13.90;99.90
18882;DHT22;9573;50.948;11.600;2022-10-16T02:52:43;13.90;99.90
18882;DHT22;9573;50.948;11.600;2022-10-16T02:55:10;13.90;99.90
18882;DHT22;9573;50.948;11.600;2022-10-16T02:57:37;13.90;99.90
18882;DHT22;9573;50.948;11.600;2022-10-16T03:00:09;13.90;99.90
18882;DHT22;9573;50.948;11.600;2022-10-16T03:02:37;13.90;99.90
18882;DHT22;9573;50.948;11.600;2022-10-16T03:05:05;13.90;99.90
18882;DHT22;9573;50.948;11.600;2022-10-16T03:07:32;13.90;99.90
18882;DHT22;9573;50.948;11.600;2022-10-16T03:09:59;13.90;99.90
18882;DHT22;9573;50.948;11.600;2022-10-16T03:12:26;14.00;99.90
18882;DHT22;9573;50.948;11.600;2022-10-16T03:14:54;14.00;99.90
18882;DHT22;9573;50.948;11.600;2022-10-16T03:17:23;14.00;99.90
18882;DHT22;9573;50.948;11.600;2022-10-16T03:19:51;14.00;99.90
18882;DHT22;9573;50.948;11.600;2022-10-16T03:22:18;13.90;99.90
18882;DHT22;9573;50.948;11.600;2022-10-16T03:24:45;14.00;99.90
18882;DHT22;9573;50.948;11.600;2022-10-16T03:27:12;14.00;99.90
18882;DHT22;9573;50.948;11.600;2022-10-16T03:29:39;13.90;99.90
18882;DHT22;9573;50.948;11.600;2022-10-16T03:32:06;13.90;99.90
18882;DHT22;9573;50.948;11.600;2022-10-16T03:34:35;13.90;99.90
18882;DHT22;9573;50.948;11.600;2022-10-16T03:37:02;13.90;99.90
18882;DHT22;9573;50.948;11.600;2022-10-16T03:39:29;13.90;99.90
18882;DHT22;9573;50.948;11.600;2022-10-16T03:41:56;13.90;99.90
18882;DHT22;9573;50.948;11.600;2022-10-16T03:44:23;13.90;99.90
18882;DHT22;9573;50.948;11.600;2022-10-16T03:46:50;13.80;99.90
18882;DHT22;9573;50.948;11.600;2022-10-16T03:49:17;13.80;99.90
18882;DHT22;9573;50.948;11.600;2022-10-16T03:51:45;13.70;99.90
18882;DHT22;9573;50.948;11.600;2022-10-16T03:54:13;13.70;99.90
18882;DHT22;9573;50.948;11.600;2022-10-16T03:56:40;13.70;99.90
18882;DHT22;9573;50.948;11.600;2022-10-16T03:59:07;13.60;99.90
18882;DHT22;9573;50.948;11.600;2022-10-16T04:01:34;13.60;99.90
18882;DHT22;9573;50.948;11.600;2022-10-16T04:04:01;13.60;99.90
18882;DHT22;9573;50.948;11.600;2022-10-16T04:06:28;13.60;99.90
18882;DHT22;9573;50.948;11.600;2022-10-16T04:08:56;13.50;99.90
18882;DHT22;9573;50.948;11.600;2022-10-16T04:11:23;13.50;99.90
18882;DHT22;9573;50.948;11.600;2022-10-16T04:13:50;13.50;99.90
18882;DHT22;9573;50.948;11.600;2022-10-16T04:16:17;13.50;99.90
18882;DHT22;9573;50.948;11.600;2022-10-16T04:18:45;13.40;99.90
18882;DHT22;9573;50.948;11.600;2022-10-16T04:21:12;13.40;99.90
18882;DHT22;9573;50.948;11.600;2022-10-16T04:23:39;13.40;99.90
18882;DHT22;9573;50.948;11.600;2022-10-16T04:26:07;13.40;99.90
18882;DHT22;9573;50.948;11.600;2022-10-16T04:28:35;13.40;99.90
18882;DHT22;9573;50.948;11.600;2022-10-16T04:31:03;13.50;99.90
18882;DHT22;9573;50.948;11.600;2022-10-16T04:33:31;13.50;99.90
18882;DHT22;9573;50.948;11.600;2022-10-16T04:35:58;13.50;99.90
18882;DHT22;9573;50.948;11.600;2022-10-16T04:38:26;13.60;99.90
18882;DHT22;9573;50.948;11.600;2022-10-16T04:40:54;13.70;99.90
18882;DHT22;9573;50.948;11.600;2022-10-16T04:43:22;13.70;99.90
18882;DHT22;9573;50.948;11.600;2022-10-16T04:45:49;13.80;99.90
18882;DHT22;9573;50.948;11.600;2022-10-16T04:48:17;13.90;99.90
18882;DHT22;9573;50.948;11.600;2022-10-16T04:50:44;13.90;99.90
18882;DHT22;9573;50.948;11.600;2022-10-16T04:53:11;14.00;99.90
18882;DHT22;9573;50.948;11.600;2022-10-16T04:55:38;14.00;99.90
18882;DHT22;9573;50.948;11.600;2022-10-16T04:58:06;14.00;99.90
18882;DHT22;9573;50.948;11.600;2022-10-16T05:00:35;14.10;99.90
18882;DHT22;9573;50.948;11.600;2022-10-16T05:03:03;14.10;99.90
18882;DHT22;9573;50.948;11.600;2022-10-16T05:05:32;14.10;99.90
18882;DHT22;9573;50.948;11.600;2022-10-16T05:08:00;14.20;99.90
18882;DHT22;9573;50.948;11.600;2022-10-16T05:10:27;14.20;99.90
18882;DHT22;9573;50.948;11.600;2022-10-16T05:12:54;14.20;99.90
18882;DHT22;9573;50.948;11.600;2022-10-16T05:15:21;14.30;99.90
18882;DHT22;9573;50.948;11.600;2022-10-16T05:17:53;14.30;99.90
18882;DHT22;9573;50.948;11.600;2022-10-16T05:20:21;14.30;99.90
18882;DHT22;9573;50.948;11.600;2022-10-16T05:22:48;14.30;99.90
18882;DHT22;9573;50.948;11.600;2022-10-16T05:25:15;14.30;99.90
18882;DHT22;9573;50.948;11.600;2022-10-16T05:27:42;14.30;99.90
18882;DHT22;9573;50.948;11.600;2022-10-16T05:30:10;14.20;99.90
18882;DHT22;9573;50.948;11.600;2022-10-16T05:32:37;14.30;99.90
18882;DHT22;9573;50.948;11.600;2022-10-16T05:35:06;14.20;99.90
18882;DHT22;9573;50.948;11.600;2022-10-16T05:37:33;14.20;99.90
18882;DHT22;9573;50.948;11.600;2022-10-16T05:40:01;14.20;99.90
18882;DHT22;9573;50.948;11.600;2022-10-16T05:42:30;14.20;99.90
18882;DHT22;9573;50.948;11.600;2022-10-16T05:44:57;14.20;99.90
18882;DHT22;9573;50.948;11.600;2022-10-16T05:47:24;14.30;99.90
18882;DHT22;9573;50.948;11.600;2022-10-16T05:49:51;14.20;99.90
18882;DHT22;9573;50.948;11.600;2022-10-16T05:52:20;14.30;99.90
18882;DHT22;9573;50.948;11.600;2022-10-16T05:54:47;14.30;99.90
18882;DHT22;9573;50.948;11.600;2022-10-16T05:57:15;14.40;99.90
18882;DHT22;9573;50.948;11.600;2022-10-16T05:59:42;14.50;99.90
18882;DHT22;9573;50.948;11.600;2022-10-16T06:02:12;14.50;99.90
18882;DHT22;9573;50.948;11.600;2022-10-16T06:04:40;14.60;99.90
18882;DHT22;9573;50.948;11.600;2022-10-16T06:07:07;14.60;99.90
18882;DHT22;9573;50.948;11.600;2022-10-16T06:09:35;14.70;99.90
18882;DHT22;9573;50.948;11.600;2022-10-16T06:12:03;14.80;99.90
18882;DHT22;9573;50.948;11.600;2022-10-16T06:14:30;14.80;99.90
18882;DHT22;9573;50.948;11.600;2022-10-16T06:16:57;14.90;99.90
18882;DHT22;9573;50.948;11.600;2022-10-16T06:19:24;14.90;99.90
18882;DHT22;9573;50.948;11.600;2022-10-16T06:21:51;15.00;99.90
18882;DHT22;9573;50.948;11.600;2022-10-16T06:24:18;15.00;99.90
18882;DHT22;9573;50.948;11.600;2022-10-16T06:26:47;15.10;99.90
18882;DHT22;9573;50.948;11.600;2022-10-16T06:29:14;15.10;99.90
18882;DHT22;9573;50.948;11.600;2022-10-16T06:31:41;15.30;99.90
18882;DHT22;9573;50.948;11.600;2022-10-16T06:34:09;15.40;99.90
18882;DHT22;9573;50.948;11.600;2022-10-16T06:36:37;15.70;99.90
18882;DHT22;9573;50.948;11.600;2022-10-16T06:39:04;15.90;99.90
18882;DHT22;9573;50.948;11.600;2022-10-16T06:41:33;16.30;99.90
18882;DHT22;9573;50.948;11.600;2022-10-16T06:44:05;16.60;99.90
18882;DHT22;9573;50.948;11.600;2022-10-16T06:46:34;16.80;99.90
18882;DHT22;9573;50.948;11.600;2022-10-16T06:49:01;17.10;99.90
18882;DHT22;9573;50.948;11.600;2022-10-16T06:51:28;17.20;99.90
18882;DHT22;9573;50.948;11.600;2022-10-16T06:53:57;17.30;99.90
18882;DHT22;9573;50.948;11.600;2022-10-16T06:56:26;17.50;99.90
18882;DHT22;9573;50.948;11.600;2022-10-16T06:58:55;17.90;99.90
18882;DHT22;9573;50.948;11.600;2022-10-16T07:01:24;19.00;99.90
18882;DHT22;9573;50.948;11.600;2022-10-16T07:03:52;21.10;99.90
18882;DHT22;9573;50.948;11.600;2022-10-16T07:06:21;22.90;99.90
18882;DHT22;9573;50.948;11.600;2022-10-16T07:08:49;24.40;99.90
18882;DHT22;9573;50.948;11.600;2022-10-16T07:11:18;24.80;99.90
18882;DHT22;9573;50.948;11.600;2022-10-16T07:13:46;24.90;99.90
18882;DHT22;9573;50.948;11.600;2022-10-16T07:16:16;26.20;99.90
18882;DHT22;9573;50.948;11.600;2022-10-16T07:18:46;26.60;99.90
18882;DHT22;9573;50.948;11.600;2022-10-16T07:21:16;25.10;99.90
18882;DHT22;9573;50.948;11.600;2022-10-16T07:23:45;23.60;99.90
18882;DHT22;9573;50.948;11.600;2022-10-16T07:26:12;22.40;99.90
18882;DHT22;9573;50.948;11.600;2022-10-16T07:28:42;21.70;99.90
18882;DHT22;9573;50.948;11.600;2022-10-16T07:31:11;21.70;99.90
18882;DHT22;9573;50.948;11.600;2022-10-16T07:33:41;22.70;99.90
18882;DHT22;9573;50.948;11.600;2022-10-16T07:36:11;24.20;99.90
18882;DHT22;9573;50.948;11.600;2022-10-16T07:38:39;24.80;99.90
18882;DHT22;9573;50.948;11.600;2022-10-16T07:41:10;24.30;99.90
18882;DHT22;9573;50.948;11.600;2022-10-16T07:43:38;23.90;99.90
18882;DHT22;9573;50.948;11.600;2022-10-16T07:46:06;23.60;99.90
18882;DHT22;9573;50.948;11.600;2022-10-16T07:48:36;23.00;99.90
18882;DHT22;9573;50.948;11.600;2022-10-16T07:51:05;22.40;99.90
18882;DHT22;9573;50.948;11.600;2022-10-16T07:53:34;22.00;99.90
18882;DHT22;9573;50.948;11.600;2022-10-16T07:56:03;21.80;99.90
18882;DHT22;9573;50.948;11.600;2022-10-16T07:58:32;21.80;99.90
18882;DHT22;9573;50.948;11.600;2022-10-16T08:01:03;22.00;99.90
18882;DHT22;9573;50.948;11.600;2022-10-16T08:03:31;22.00;99.90
18882;DHT22;9573;50.948;11.600;2022-10-16T08:05:59;21.90;99.90
18882;DHT22;9573;50.948;11.600;2022-10-16T08:08:26;21.80;99.90
18882;DHT22;9573;50.948;11.600;2022-10-16T08:10:55;21.60;99.90
18882;DHT22;9573;50.948;11.600;2022-10-16T08:13:22;21.30;99.90
18882;DHT22;9573;50.948;11.600;2022-10-16T08:15:49;21.20;99.90
18882;DHT22;9573;50.948;11.600;2022-10-16T08:18:16;21.00;99.90
18882;DHT22;9573;50.948;11.600;2022-10-16T08:20:44;20.90;99.90
18882;DHT22;9573;50.948;11.600;2022-10-16T08:23:11;21.00;99.90
18882;DHT22;9573;50.948;11.600;2022-10-16T08:25:39;21.10;99.90
18882;DHT22;9573;50.948;11.600;2022-10-16T08:28:10;21.10;99.90
18882;DHT22;9573;50.948;11.600;2022-10-16T08:30:38;21.00;99.90
18882;DHT22;9573;50.948;11.600;2022-10-16T08:33:05;20.90;99.90
18882;DHT22;9573;50.948;11.600;2022-10-16T08:35:33;20.70;99.90
18882;DHT22;9573;50.948;11.600;2022-10-16T08:38:02;20.60;99.90
18882;DHT22;9573;50.948;11.600;2022-10-16T08:40:31;20.60;99.90
18882;DHT22;9573;50.948;11.600;2022-10-16T08:43:14;20.60;99.90
18882;DHT22;9573;50.948;11.600;2022-10-16T08:46:15;20.80;99.90
18882;DHT22;9573;50.948;11.600;2022-10-16T08:48:50;20.90;99.90
18882;DHT22;9573;50.948;11.600;2022-10-16T08:51:21;20.90;99.90
18882;DHT22;9573;50.948;11.600;2022-10-16T08:53:53;20.90;99.90
18882;DHT22;9573;50.948;11.600;2022-10-16T08:56:22;20.90;99.90
18882;DHT22;9573;50.948;11.600;2022-10-16T08:58:57;21.30;99.90
18882;DHT22;9573;50.948;11.600;2022-10-16T09:01:38;21.60;99.90
18882;DHT22;9573;50.948;11.600;2022-10-16T09:07:28;21.20;99.90
18882;DHT22;9573;50.948;11.600;2022-10-16T09:10:21;21.60;99.90
18882;DHT22;9573;50.948;11.600;2022-10-16T09:13:00;21.70;99.90
18882;DHT22;9573;50.948;11.600;2022-10-16T09:15:40;22.20;99.90
18882;DHT22;9573;50.948;11.600;2022-10-16T09:18:16;22.50;99.90
18882;DHT22;9573;50.948;11.600;2022-10-16T09:20:51;22.70;99.90
18882;DHT22;9573;50.948;11.600;2022-10-16T09:23:26;22.90;99.90
18882;DHT22;9573;50.948;11.600;2022-10-16T09:25:55;22.90;99.90
18882;DHT22;9573;50.948;11.600;2022-10-16T09:28:23;22.80;99.90
18882;DHT22;9573;50.948;11.600;2022-10-16T09:30:51;22.70;99.90
18882;DHT22;9573;50.948;11.600;2022-10-16T09:33:21;22.50;99.90
18882;DHT22;9573;50.948;11.600;2022-10-16T09:35:51;22.30;99.90
18882;DHT22;9573;50.948;11.600;2022-10-16T09:38:25;22.20;99.90
18882;DHT22;9573;50.948;11.600;2022-10-16T09:40:55;22.30;99.90
18882;DHT22;9573;50.948;11.600;2022-10-16T09:43:25;22.30;99.90
18882;DHT22;9573;50.948;11.600;2022-10-16T09:46:02;22.30;99.90
18882;DHT22;9573;50.948;11.600;2022-10-16T09:48:36;22.20;99.90
18882;DHT22;9573;50.948;11.600;2022-10-16T09:51:06;22.20;99.90
18882;DHT22;9573;50.948;11.600;2022-10-16T09:53:42;22.50;99.90
18882;DHT22;9573;50.948;11.600;2022-10-16T09:56:11;22.90;99.90
18882;DHT22;9573;50.948;11.600;2022-10-16T09:58:51;23.30;99.90
18882;DHT22;9573;50.948;11.600;2022-10-16T10:01:32;23.30;99.90
18882;DHT22;9573;50.948;11.600;2022-10-16T10:04:06;23.00;99.90
18882;DHT22;9573;50.948;11.600;2022-10-16T10:06:35;22.80;99.90
18882;DHT22;9573;50.948;11.600;2022-10-16T10:09:06;22.70;99.90
18882;DHT22;9573;50.948;11.600;2022-10-16T10:11:45;22.50;99.90
18882;DHT22;9573;50.948;11.600;2022-10-16T10:14:31;22.20;99.90
18882;DHT22;9573;50.948;11.600;2022-10-16T10:17:10;22.10;99.90
18882;DHT22;9573;50.948;11.600;2022-10-16T10:19:40;22.00;99.90
18882;DHT22;9573;50.948;11.600;2022-10-16T10:22:27;22.00;99.90
18882;DHT22;9573;50.948;11.600;2022-10-16T10:25:01;22.00;99.90
18882;DHT22;9573;50.948;11.600;2022-10-16T10:27:49;22.10;99.90
18882;DHT22;9573;50.948;11.600;2022-10-16T10:30:25;22.40;99.90
18882;DHT22;9573;50.948;11.600;2022-10-16T10:33:09;23.00;99.90
18882;DHT22;9573;50.948;11.600;2022-10-16T10:35:45;23.30;99.90
18882;DHT22;9573;50.948;11.600;2022-10-16T10:38:27;23.80;99.90
18882;DHT22;9573;50.948;11.600;2022-10-16T10:41:13;24.80;99.90
18882;DHT22;9573;50.948;11.600;2022-10-16T10:44:00;26.40;99.90
18882;DHT22;9573;50.948;11.600;2022-10-16T10:46:34;26.70;99.90
18882;DHT22;9573;50.948;11.600;2022-10-16T10:49:25;26.40;99.90
18882;DHT22;9573;50.948;11.600;2022-10-16T10:52:13;26.00;99.90
18882;DHT22;9573;50.948;11.600;2022-10-16T10:55:03;25.60;99.90
18882;DHT22;9573;50.948;11.600;2022-10-16T10:57:47;25.20;99.90
18882;DHT22;9573;50.948;11.600;2022-10-16T11:00:28;24.60;99.90
18882;DHT22;9573;50.948;11.600;2022-10-16T11:03:03;24.30;99.90
18882;DHT22;9573;50.948;11.600;2022-10-16T11:05:41;24.00;99.90
18882;DHT22;9573;50.948;11.600;2022-10-16T11:08:15;23.70;99.90
18882;DHT22;9573;50.948;11.600;2022-10-16T11:10:50;23.50;99.90
18882;DHT22;9573;50.948;11.600;2022-10-16T11:13:27;23.40;99.90
18882;DHT22;9573;50.948;11.600;2022-10-16T11:16:02;23.20;99.90
18882;DHT22;9573;50.948;11.600;2022-10-16T11:18:45;22.90;99.90
18882;DHT22;9573;50.948;11.600;2022-10-16T11:21:19;22.70;99.90
18882;DHT22;9573;50.948;11.600;2022-10-16T11:23:53;22.50;99.90
18882;DHT22;9573;50.948;11.600;2022-10-16T11:26:26;22.40;99.90
18882;DHT22;9573;50.948;11.600;2022-10-16T11:28:56;22.10;99.90
18882;DHT22;9573;50.948;11.600;2022-10-16T11:31:29;22.00;99.90
18882;DHT22;9573;50.948;11.600;2022-10-16T11:34:04;21.90;99.90
18882;DHT22;9573;50.948;11.600;2022-10-16T11:36:38;21.90;99.90
18882;DHT22;9573;50.948;11.600;2022-10-16T11:39:20;21.80;99.90
18882;DHT22;9573;50.948;11.600;2022-10-16T11:41:52;21.80;99.90
18882;DHT22;9573;50.948;11.600;2022-10-16T11:44:36;21.90;99.90
18882;DHT22;9573;50.948;11.600;2022-10-16T11:47:15;22.20;99.90
18882;DHT22;9573;50.948;11.600;2022-10-16T11:49:52;22.60;99.90
18882;DHT22;9573;50.948;11.600;2022-10-16T11:52:30;23.10;99.90
18882;DHT22;9573;50.948;11.600;2022-10-16T11:55:09;23.50;99.90
18882;DHT22;9573;50.948;11.600;2022-10-16T11:57:44;24.00;99.90
18882;DHT22;9573;50.948;11.600;2022-10-16T12:00:20;23.90;99.90
18882;DHT22;9573;50.948;11.600;2022-10-16T12:02:56;23.70;99.90
18882;DHT22;9573;50.948;11.600;2022-10-16T12:05:31;23.60;99.90
18882;DHT22;9573;50.948;11.600;2022-10-16T12:08:08;23.60;99.90
18882;DHT22;9573;50.948;11.600;2022-10-16T12:10:37;23.80;99.90
18882;DHT22;9573;50.948;11.600;2022-10-16T12:13:34;24.00;99.90
18882;DHT22;9573;50.948;11.600;2022-10-16T12:16:21;24.50;99.90
18882;DHT22;9573;50.948;11.600;2022-10-16T12:19:03;25.10;99.90
18882;DHT22;9573;50.948;11.600;2022-10-16T12:21:37;25.50;99.90
18882;DHT22;9573;50.948;11.600;2022-10-16T12:24:06;25.80;99.90
18882;DHT22;9573;50.948;11.600;2022-10-16T12:26:54;26.40;99.90
18882;DHT22;9573;50.948;11.600;2022-10-16T12:29:27;27.00;99.90
18882;DHT22;9573;50.948;11.600;2022-10-16T12:31:58;27.60;99.90
18882;DHT22;9573;50.948;11.600;2022-10-16T12:34:28;28.40;99.90
18882;DHT22;9573;50.948;11.600;2022-10-16T12:37:13;29.70;99.90
18882;DHT22;9573;50.948;11.600;2022-10-16T12:39:46;30.60;99.90
18882;DHT22;9573;50.948;11.600;2022-10-16T12:42:31;31.00;99.90
18882;DHT22;9573;50.948;11.600;2022-10-16T12:45:00;31.60;99.90
18882;DHT22;9573;50.948;11.600;2022-10-16T12:47:46;30.90;99.90
18882;DHT22;9573;50.948;11.600;2022-10-16T12:50:32;29.50;99.90
18882;DHT22;9573;50.948;11.600;2022-10-16T12:53:02;28.50;99.90
18882;DHT22;9573;50.948;11.600;2022-10-16T12:55:42;27.80;99.90
18882;DHT22;9573;50.948;11.600;2022-10-16T13:01:39;26.90;99.90
18882;DHT22;9573;50.948;11.600;2022-10-16T13:04:18;26.60;99.90
18882;DHT22;9573;50.948;11.600;2022-10-16T13:06:57;26.30;99.90
18882;DHT22;9573;50.948;11.600;2022-10-16T13:09:38;25.70;99.90
18882;DHT22;9573;50.948;11.600;2022-10-16T13:12:30;26.30;99.90
18882;DHT22;9573;50.948;11.600;2022-10-16T13:15:31;26.90;99.90
18882;DHT22;9573;50.948;11.600;2022-10-16T13:18:11;26.40;99.90
18882;DHT22;9573;50.948;11.600;2022-10-16T13:20:53;25.70;99.90
18882;DHT22;9573;50.948;11.600;2022-10-16T13:23:31;25.30;99.90
18882;DHT22;9573;50.948;11.600;2022-10-16T13:26:12;24.80;99.90
18882;DHT22;9573;50.948;11.600;2022-10-16T13:28:45;24.60;99.90
18882;DHT22;9573;50.948;11.600;2022-10-16T13:31:17;24.60;99.90
18882;DHT22;9573;50.948;11.600;2022-10-16T13:33:48;24.90;99.90
18882;DHT22;9573;50.948;11.600;2022-10-16T13:36:20;24.80;99.90
18882;DHT22;9573;50.948;11.600;2022-10-16T13:39:00;25.00;99.90
18882;DHT22;9573;50.948;11.600;2022-10-16T13:41:28;25.60;99.90
18882;DHT22;9573;50.948;11.600;2022-10-16T13:43:57;26.30;99.90
18882;DHT22;9573;50.948;11.600;2022-10-16T13:46:25;26.30;99.90
18882;DHT22;9573;50.948;11.600;2022-10-16T13:48:59;25.90;99.90
18882;DHT22;9573;50.948;11.600;2022-10-16T13:51:28;25.40;99.90
18882;DHT22;9573;50.948;11.600;2022-10-16T13:53:57;24.90;99.90
18882;DHT22;9573;50.948;11.600;2022-10-16T13:56:28;24.70;99.90
18882;DHT22;9573;50.948;11.600;2022-10-16T13:59:02;24.60;99.90
18882;DHT22;9573;50.948;11.600;2022-10-16T14:01:31;24.60;99.90
18882;DHT22;9573;50.948;11.600;2022-10-16T14:04:02;24.60;99.90
18882;DHT22;9573;50.948;11.600;2022-10-16T14:06:32;24.50;99.90
18882;DHT22;9573;50.948;11.600;2022-10-16T14:09:04;24.40;99.90
18882;DHT22;9573;50.948;11.600;2022-10-16T14:11:33;24.30;99.90
18882;DHT22;9573;50.948;11.600;2022-10-16T14:14:11;24.10;99.90
18882;DHT22;9573;50.948;11.600;2022-10-16T14:16:41;23.90;99.90
18882;DHT22;9573;50.948;11.600;2022-10-16T14:19:14;23.70;99.90
18882;DHT22;9573;50.948;11.600;2022-10-16T14:21:46;23.60;99.90
18882;DHT22;9573;50.948;11.600;2022-10-16T14:24:14;23.50;99.90
18882;DHT22;9573;50.948;11.600;2022-10-16T14:26:51;23.40;99.90
18882;DHT22;9573;50.948;11.600;2022-10-16T14:29:22;23.20;99.90
18882;DHT22;9573;50.948;11.600;2022-10-16T14:32:00;23.00;99.90
18882;DHT22;9573;50.948;11.600;2022-10-16T14:34:30;22.90;99.90
18882;DHT22;9573;50.948;11.600;2022-10-16T14:37:00;22.90;99.90
18882;DHT22;9573;50.948;11.600;2022-10-16T14:39:32;22.90;99.90
18882;DHT22;9573;50.948;11.600;2022-10-16T14:42:00;22.70;99.90
18882;DHT22;9573;50.948;11.600;2022-10-16T14:44:31;22.60;99.90
18882;DHT22;9573;50.948;11.600;2022-10-16T14:47:06;22.50;99.90
18882;DHT22;9573;50.948;11.600;2022-10-16T14:49:35;22.40;99.90
18882;DHT22;9573;50.948;11.600;2022-10-16T14:52:08;22.30;99.90
18882;DHT22;9573;50.948;11.600;2022-10-16T14:54:36;22.20;99.90
18882;DHT22;9573;50.948;11.600;2022-10-16T14:57:03;22.30;99.90
18882;DHT22;9573;50.948;11.600;2022-10-16T14:59:35;22.30;99.90
18882;DHT22;9573;50.948;11.600;2022-10-16T15:02:18;22.40;99.90
18882;DHT22;9573;50.948;11.600;2022-10-16T15:04:47;22.40;99.90
18882;DHT22;9573;50.948;11.600;2022-10-16T15:07:15;22.40;99.90
18882;DHT22;9573;50.948;11.600;2022-10-16T15:09:42;22.40;99.90
18882;DHT22;9573;50.948;11.600;2022-10-16T15:12:09;22.50;99.90
18882;DHT22;9573;50.948;11.600;2022-10-16T15:14:38;22.50;99.90
18882;DHT22;9573;50.948;11.600;2022-10-16T15:17:05;22.50;99.90
18882;DHT22;9573;50.948;11.600;2022-10-16T15:19:33;22.40;99.90
18882;DHT22;9573;50.948;11.600;2022-10-16T15:22:01;22.30;99.90
18882;DHT22;9573;50.948;11.600;2022-10-16T15:24:28;22.10;99.90
18882;DHT22;9573;50.948;11.600;2022-10-16T15:26:55;22.00;99.90
18882;DHT22;9573;50.948;11.600;2022-10-16T15:29:22;22.00;99.90
18882;DHT22;9573;50.948;11.600;2022-10-16T15:31:50;21.80;99.90
18882;DHT22;9573;50.948;11.600;2022-10-16T15:34:17;21.70;99.90
18882;DHT22;9573;50.948;11.600;2022-10-16T15:36:45;21.70;99.90
18882;DHT22;9573;50.948;11.600;2022-10-16T15:39:14;21.60;99.90
18882;DHT22;9573;50.948;11.600;2022-10-16T15:41:44;21.50;99.90
18882;DHT22;9573;50.948;11.600;2022-10-16T15:44:16;21.40;99.90
18882;DHT22;9573;50.948;11.600;2022-10-16T15:46:43;21.30;99.90
18882;DHT22;9573;50.948;11.600;2022-10-16T15:49:11;21.20;99.90
18882;DHT22;9573;50.948;11.600;2022-10-16T15:51:40;21.10;99.90
18882;DHT22;9573;50.948;11.600;2022-10-16T15:54:08;21.00;99.90
18882;DHT22;9573;50.948;11.600;2022-10-16T15:56:35;21.00;99.90
18882;DHT22;9573;50.948;11.600;2022-10-16T15:59:03;20.90;99.90
18882;DHT22;9573;50.948;11.600;2022-10-16T16:01:32;20.90;99.90
18882;DHT22;9573;50.948;11.600;2022-10-16T16:03:59;20.80;99.90